createdAt,value
2023-02-08T00:01:32.565Z,-5.80
2023-02-08T00:03:59.231Z,-5.80
2023-02-08T00:06:25.875Z,-5.80
2023-02-08T00:08:52.500Z,-5.90
2023-02-08T00:11:19.168Z,-5.80
2023-02-08T00:13:45.775Z,-5.80
2023-02-08T00:16:13.033Z,-5.80
2023-02-08T00:18:39.876Z,-5.80
2023-02-08T00:21:07.429Z,-5.80
2023-02-08T00:23:34.119Z,-5.80
2023-02-08T00:26:00.729Z,-5.80
2023-02-08T00:28:27.347Z,-5.80
2023-02-08T00:30:54.333Z,-5.80
2023-02-08T00:33:21.053Z,-5.80
2023-02-08T00:35:47.658Z,-5.80
2023-02-08T00:38:14.277Z,-5.80
2023-02-08T00:40:41.157Z,-5.80
2023-02-08T00:43:08.000Z,-5.80
2023-02-08T00:45:34.858Z,-5.80
2023-02-08T00:48:01.468Z,-5.80
2023-02-08T00:50:28.226Z,-5.80
2023-02-08T00:52:56.296Z,-5.90
2023-02-08T00:55:22.983Z,-5.90
2023-02-08T00:57:49.599Z,-5.90
2023-02-08T01:00:16.314Z,-5.90
2023-02-08T01:02:42.950Z,-5.90
2023-02-08T01:05:11.188Z,-6.00
2023-02-08T01:07:39.748Z,-6.00
2023-02-08T01:10:07.160Z,-6.10
2023-02-08T01:12:34.664Z,-6.10
2023-02-08T01:15:01.320Z,-6.20
2023-02-08T01:17:27.976Z,-6.20
2023-02-08T01:19:54.592Z,-6.30
2023-02-08T01:22:21.336Z,-6.30
2023-02-08T01:24:47.950Z,-6.30
2023-02-08T01:27:14.635Z,-6.30
2023-02-08T01:29:41.275Z,-6.40
2023-02-08T01:32:07.932Z,-6.40
2023-02-08T01:34:34.564Z,-6.40
2023-02-08T01:37:01.152Z,-6.40
2023-02-08T01:39:27.792Z,-6.50
2023-02-08T01:41:54.433Z,-6.50
2023-02-08T01:44:39.862Z,-6.50
2023-02-08T01:47:06.497Z,-6.50
2023-02-08T01:49:34.721Z,-6.50
2023-02-08T01:52:07.462Z,-6.50
2023-02-08T01:54:44.044Z,-6.60
2023-02-08T01:57:10.900Z,-6.60
2023-02-08T01:59:40.741Z,-6.60
2023-02-08T02:02:09.860Z,-6.60
2023-02-08T02:04:36.596Z,-6.50
2023-02-08T02:07:04.169Z,-6.50
2023-02-08T02:09:33.797Z,-6.50
2023-02-08T02:12:00.903Z,-6.50
2023-02-08T02:14:27.932Z,-6.50
2023-02-08T02:16:54.599Z,-6.50
2023-02-08T02:19:29.159Z,-6.50
2023-02-08T02:22:14.813Z,-6.50
2023-02-08T02:24:50.636Z,-6.50
2023-02-08T02:27:20.259Z,-6.50
2023-02-08T02:29:46.825Z,-6.50
2023-02-08T02:32:24.725Z,-6.50
2023-02-08T02:34:55.072Z,-6.50
2023-02-08T02:37:37.748Z,-6.50
2023-02-08T02:40:12.118Z,-6.50
2023-02-08T02:43:06.989Z,-6.50
2023-02-08T02:45:36.418Z,-6.50
2023-02-08T02:48:14.580Z,-6.50
2023-02-08T02:50:56.761Z,-6.40
2023-02-08T02:53:33.198Z,-6.40
2023-02-08T02:56:02.167Z,-6.30
2023-02-08T02:58:28.875Z,-6.30
2023-02-08T03:00:56.892Z,-6.20
2023-02-08T03:03:25.176Z,-6.20
2023-02-08T03:05:53.039Z,-6.10
2023-02-08T03:08:19.656Z,-6.10
2023-02-08T03:10:53.024Z,-6.00
2023-02-08T03:13:31.744Z,-5.90
2023-02-08T03:16:13.651Z,-5.90
2023-02-08T03:19:05.349Z,-5.90
2023-02-08T03:21:40.366Z,-5.80
2023-02-08T03:24:12.836Z,-5.70
2023-02-08T03:26:53.217Z,-5.60
2023-02-08T03:29:22.851Z,-5.50
2023-02-08T03:32:10.095Z,-5.50
2023-02-08T03:34:44.690Z,-5.50
2023-02-08T03:37:16.886Z,-5.50
2023-02-08T03:39:45.468Z,-5.50
2023-02-08T03:42:17.207Z,-5.40
2023-02-08T03:44:51.147Z,-5.40
2023-02-08T03:47:17.727Z,-5.40
2023-02-08T03:49:45.715Z,-5.30
2023-02-08T03:52:12.530Z,-5.20
2023-02-08T03:54:44.467Z,-5.20
2023-02-08T03:57:15.631Z,-5.10
2023-02-08T03:59:44.150Z,-5.10
2023-02-08T04:02:13.018Z,-5.00
2023-02-08T04:04:42.676Z,-5.10
2023-02-08T04:07:09.424Z,-5.10
2023-02-08T04:09:38.524Z,-5.10
2023-02-08T04:12:05.867Z,-5.20
2023-02-08T04:14:32.467Z,-5.20
2023-02-08T04:16:59.111Z,-5.30
2023-02-08T04:19:25.798Z,-5.30
2023-02-08T04:21:52.466Z,-5.40
2023-02-08T04:24:19.096Z,-5.40
2023-02-08T04:26:45.824Z,-5.40
2023-02-08T04:29:12.542Z,-5.40
2023-02-08T04:31:39.256Z,-5.40
2023-02-08T04:34:05.931Z,-5.40
2023-02-08T04:36:32.560Z,-5.40
2023-02-08T04:38:59.179Z,-5.50
2023-02-08T04:41:25.759Z,-5.50
2023-02-08T04:43:52.343Z,-5.50
2023-02-08T04:46:18.989Z,-5.50
2023-02-08T04:48:45.592Z,-5.50
2023-02-08T04:51:12.220Z,-5.50
2023-02-08T04:53:38.815Z,-5.50
2023-02-08T04:56:05.458Z,-5.50
2023-02-08T04:58:32.119Z,-5.50
2023-02-08T05:00:58.889Z,-5.40
2023-02-08T05:03:25.584Z,-5.50
2023-02-08T05:05:58.965Z,-5.50
2023-02-08T05:08:26.296Z,-5.50
2023-02-08T05:10:52.889Z,-5.50
2023-02-08T05:13:19.495Z,-5.50
2023-02-08T05:15:46.175Z,-5.50
2023-02-08T05:18:12.846Z,-5.50
2023-02-08T05:20:39.961Z,-5.50
2023-02-08T05:23:06.778Z,-5.50
2023-02-08T05:25:33.386Z,-5.50
2023-02-08T05:28:00.274Z,-5.50
2023-02-08T05:30:26.867Z,-5.50
2023-02-08T05:32:53.445Z,-5.50
2023-02-08T05:35:20.115Z,-5.50
2023-02-08T05:37:46.701Z,-5.50
2023-02-08T05:40:13.310Z,-5.40
2023-02-08T05:42:39.938Z,-5.40
2023-02-08T05:45:06.650Z,-5.40
2023-02-08T05:47:33.275Z,-5.30
2023-02-08T05:49:59.899Z,-5.40
2023-02-08T05:52:26.514Z,-5.40
2023-02-08T05:54:53.129Z,-5.40
2023-02-08T05:57:19.733Z,-5.40
2023-02-08T05:59:46.384Z,-5.40
2023-02-08T06:02:13.042Z,-5.40
2023-02-08T06:04:39.827Z,-5.40
2023-02-08T06:07:06.458Z,-5.40
2023-02-08T06:09:33.099Z,-5.40
2023-02-08T06:11:59.842Z,-5.40
2023-02-08T06:14:26.553Z,-5.40
2023-02-08T06:16:53.172Z,-5.50
2023-02-08T06:19:19.762Z,-5.60
2023-02-08T06:21:46.673Z,-5.60
2023-02-08T06:24:13.754Z,-5.70
2023-02-08T06:26:40.402Z,-5.70
2023-02-08T06:29:07.009Z,-5.70
2023-02-08T06:31:33.732Z,-5.70
2023-02-08T06:34:00.364Z,-5.70
2023-02-08T06:36:27.178Z,-5.70
2023-02-08T06:38:53.808Z,-5.70
2023-02-08T06:41:20.436Z,-5.70
2023-02-08T06:43:47.043Z,-5.70
2023-02-08T06:46:13.826Z,-5.70
2023-02-08T06:48:40.468Z,-5.70
2023-02-08T06:51:07.206Z,-5.70
2023-02-08T06:53:34.120Z,-5.70
2023-02-08T06:56:01.145Z,-5.70
2023-02-08T06:58:27.780Z,-5.70
2023-02-08T07:00:54.427Z,-5.70
2023-02-08T07:03:22.523Z,-5.70
2023-02-08T07:06:03.802Z,-5.70
2023-02-08T07:08:32.082Z,-5.70
2023-02-08T07:10:59.269Z,-5.70
2023-02-08T07:13:25.944Z,-5.60
2023-02-08T07:15:52.614Z,-5.60
2023-02-08T07:18:19.222Z,-5.60
2023-02-08T07:20:45.839Z,-5.50
2023-02-08T07:23:12.435Z,-5.50
2023-02-08T07:25:39.033Z,-5.50
2023-02-08T07:28:05.705Z,-5.50
2023-02-08T07:30:32.421Z,-5.50
2023-02-08T07:32:59.249Z,-5.40
2023-02-08T07:35:25.887Z,-5.40
2023-02-08T07:37:52.542Z,-5.40
2023-02-08T07:40:19.233Z,-5.30
2023-02-08T07:42:45.918Z,-5.30
2023-02-08T07:45:24.006Z,-5.20
2023-02-08T07:47:50.645Z,-5.20
2023-02-08T07:50:17.338Z,-5.20
2023-02-08T07:52:46.016Z,-5.10
2023-02-08T07:55:16.990Z,-5.10
2023-02-08T07:57:44.239Z,-5.20
2023-02-08T08:00:11.266Z,-5.10
2023-02-08T08:02:41.166Z,-5.10
2023-02-08T08:05:08.313Z,-5.10
2023-02-08T08:07:34.980Z,-5.10
2023-02-08T08:10:01.870Z,-5.00
2023-02-08T08:12:28.450Z,-5.00
2023-02-08T08:14:55.091Z,-5.00
2023-02-08T08:17:21.806Z,-4.90
2023-02-08T08:19:48.430Z,-4.80
2023-02-08T08:22:15.117Z,-4.70
2023-02-08T08:24:41.746Z,-4.70
2023-02-08T08:27:08.550Z,-4.70
2023-02-08T08:29:36.170Z,-4.60
2023-02-08T08:32:04.249Z,-4.60
2023-02-08T08:34:31.261Z,-4.50
2023-02-08T08:36:58.578Z,-4.40
2023-02-08T08:39:26.649Z,-4.30
2023-02-08T08:42:00.005Z,-4.10
2023-02-08T08:44:26.862Z,-4.00
2023-02-08T08:46:57.092Z,-3.80
2023-02-08T08:49:24.305Z,-3.70
2023-02-08T08:51:51.367Z,-3.60
2023-02-08T08:54:18.636Z,-3.50
2023-02-08T08:56:45.343Z,-3.50
2023-02-08T08:59:12.079Z,-3.50
2023-02-08T09:01:40.107Z,-3.40
2023-02-08T09:04:06.774Z,-3.50
2023-02-08T09:06:33.415Z,-3.50
2023-02-08T09:09:00.094Z,-3.50
2023-02-08T09:11:26.852Z,-3.50
2023-02-08T09:13:56.073Z,-3.50
2023-02-08T09:16:23.915Z,-3.50
2023-02-08T09:18:51.181Z,-3.50
2023-02-08T09:21:19.379Z,-3.50
2023-02-08T09:23:47.562Z,-3.50
2023-02-08T09:26:15.638Z,-3.50
2023-02-08T09:28:42.605Z,-3.40
2023-02-08T09:31:09.301Z,-3.40
2023-02-08T09:33:36.291Z,-3.40
2023-02-08T09:36:03.333Z,-3.40
2023-02-08T09:38:30.087Z,-3.40
2023-02-08T09:41:12.075Z,-3.30
2023-02-08T09:43:57.596Z,-3.20
2023-02-08T09:46:29.843Z,-3.00
2023-02-08T09:48:58.957Z,-2.90
2023-02-08T09:51:44.608Z,-2.90
2023-02-08T09:54:22.981Z,-2.90
2023-02-08T09:56:50.216Z,-2.90
2023-02-08T09:59:21.084Z,-2.80
2023-02-08T10:01:49.270Z,-2.80
2023-02-08T10:04:22.136Z,-2.80
2023-02-08T10:06:50.144Z,-2.60
2023-02-08T10:09:18.816Z,-2.30
2023-02-08T10:11:45.654Z,-2.20
2023-02-08T10:14:21.308Z,-2.10
2023-02-08T10:17:06.009Z,-1.90
2023-02-08T10:19:38.766Z,-1.80
2023-02-08T10:22:15.427Z,-1.70
2023-02-08T10:25:07.906Z,-1.60
2023-02-08T10:27:37.785Z,-1.60
2023-02-08T10:30:04.425Z,-1.60
2023-02-08T10:32:38.019Z,-1.70
2023-02-08T10:35:10.571Z,-1.80
2023-02-08T10:37:39.193Z,-1.80
2023-02-08T10:40:35.791Z,-1.70
2023-02-08T10:43:15.633Z,-1.70
2023-02-08T10:45:50.910Z,-1.70
2023-02-08T10:48:22.956Z,-1.60
2023-02-08T10:50:50.266Z,-1.50
2023-02-08T10:53:18.616Z,-1.40
2023-02-08T10:55:46.282Z,-1.40
2023-02-08T10:58:17.455Z,-1.40
2023-02-08T11:00:44.745Z,-1.30
2023-02-08T11:03:17.304Z,-1.20
2023-02-08T11:05:45.620Z,-1.10
2023-02-08T11:08:19.365Z,-1.10
2023-02-08T11:10:56.640Z,-0.90
2023-02-08T11:13:24.426Z,-0.50
2023-02-08T11:15:52.568Z,-0.20
2023-02-08T11:18:33.080Z,-0.10
2023-02-08T11:21:01.949Z,0.10
2023-02-08T11:23:30.118Z,0.20
2023-02-08T11:26:15.350Z,0.30
2023-02-08T11:28:42.758Z,0.60
2023-02-08T11:31:17.507Z,0.80
2023-02-08T11:34:00.503Z,1.10
2023-02-08T11:36:27.925Z,1.10
2023-02-08T11:38:54.890Z,1.00
2023-02-08T11:41:23.545Z,1.00
2023-02-08T11:43:59.238Z,1.20
2023-02-08T11:46:28.371Z,1.50
2023-02-08T11:48:55.735Z,1.90
2023-02-08T11:51:27.876Z,2.00
2023-02-08T11:53:54.919Z,1.80
2023-02-08T11:56:23.553Z,1.40
2023-02-08T11:59:09.061Z,1.10
2023-02-08T12:01:37.346Z,1.10
2023-02-08T12:04:08.551Z,1.20
2023-02-08T12:06:49.885Z,1.40
2023-02-08T12:09:19.537Z,1.20
2023-02-08T12:11:52.283Z,1.00
2023-02-08T12:14:38.001Z,0.70
2023-02-08T12:17:07.606Z,0.70
2023-02-08T12:19:52.704Z,0.70
2023-02-08T12:22:23.842Z,0.70
2023-02-08T12:24:59.891Z,0.60
2023-02-08T12:27:32.633Z,0.60
2023-02-08T12:30:08.323Z,0.40
2023-02-08T12:32:50.217Z,0.20
2023-02-08T12:35:33.374Z,0.10
2023-02-08T12:38:24.127Z,0.00
2023-02-08T12:41:02.804Z,0.00
2023-02-08T12:43:41.871Z,0.20
2023-02-08T12:46:11.716Z,0.30
2023-02-08T12:48:56.994Z,0.30
2023-02-08T12:51:26.680Z,0.30
2023-02-08T12:53:57.840Z,0.30
2023-02-08T12:56:30.349Z,0.20
2023-02-08T12:59:08.179Z,0.30
2023-02-08T13:01:44.584Z,0.30
2023-02-08T13:04:14.930Z,0.30
2023-02-08T13:06:43.035Z,0.30
2023-02-08T13:09:16.305Z,0.40
2023-02-08T13:11:46.157Z,0.60
2023-02-08T13:14:33.062Z,0.70
2023-02-08T13:17:04.420Z,0.70
2023-02-08T13:19:54.401Z,0.80
2023-02-08T13:22:26.146Z,0.80
2023-02-08T13:25:06.462Z,0.90
2023-02-08T13:27:34.390Z,1.00
2023-02-08T13:30:01.180Z,1.00
2023-02-08T13:32:47.315Z,1.00
2023-02-08T13:35:19.458Z,1.00
2023-02-08T13:37:54.343Z,0.90
2023-02-08T13:40:27.918Z,0.80
2023-02-08T13:42:59.826Z,0.70
2023-02-08T13:45:31.765Z,0.50
2023-02-08T13:48:00.610Z,0.30
2023-02-08T13:50:29.139Z,0.30
2023-02-08T13:52:55.995Z,0.20
2023-02-08T13:55:28.560Z,0.20
2023-02-08T13:57:56.527Z,0.20
2023-02-08T14:00:27.451Z,0.20
2023-02-08T14:03:02.153Z,0.20
2023-02-08T14:05:31.654Z,0.20
2023-02-08T14:07:58.958Z,0.10
2023-02-08T14:10:37.348Z,0.10
2023-02-08T14:13:09.137Z,0.20
2023-02-08T14:15:37.547Z,0.20
2023-02-08T14:18:04.962Z,0.20
2023-02-08T14:20:34.674Z,0.20
2023-02-08T14:23:03.214Z,0.20
2023-02-08T14:25:37.649Z,0.10
2023-02-08T14:28:04.359Z,0.10
2023-02-08T14:30:39.189Z,0.10
2023-02-08T14:33:08.846Z,0.10
2023-02-08T14:35:37.579Z,0.20
2023-02-08T14:38:19.579Z,0.10
2023-02-08T14:41:06.429Z,0.10
2023-02-08T14:43:34.643Z,0.20
2023-02-08T14:46:40.258Z,0.20
2023-02-08T14:49:10.380Z,0.30
2023-02-08T14:51:38.267Z,0.40
2023-02-08T14:54:14.839Z,0.40
2023-02-08T14:57:07.566Z,0.30
2023-02-08T14:59:34.882Z,0.30
2023-02-08T15:02:02.825Z,0.10
2023-02-08T15:04:30.209Z,0.00
2023-02-08T15:07:04.340Z,-0.10
2023-02-08T15:09:37.287Z,-0.20
2023-02-08T15:12:11.277Z,-0.30
2023-02-08T15:14:39.882Z,-0.40
2023-02-08T15:17:06.713Z,-0.50
2023-02-08T15:19:34.691Z,-0.60
2023-02-08T15:22:18.018Z,-0.60
2023-02-08T15:24:59.030Z,-0.60
2023-02-08T15:27:27.079Z,-0.60
2023-02-08T15:29:54.001Z,-0.60
2023-02-08T15:32:22.379Z,-0.60
2023-02-08T15:34:54.541Z,-0.70
2023-02-08T15:37:21.498Z,-0.70
2023-02-08T15:39:50.398Z,-0.80
2023-02-08T15:42:18.209Z,-0.80
2023-02-08T15:44:44.900Z,-0.80
2023-02-08T15:47:20.160Z,-0.70
2023-02-08T15:49:49.820Z,-0.50
2023-02-08T15:52:18.257Z,-0.20
2023-02-08T15:54:45.420Z,0.00
2023-02-08T15:57:28.026Z,0.00
2023-02-08T15:59:54.995Z,-0.10
2023-02-08T16:02:29.019Z,-0.30
2023-02-08T16:04:56.195Z,-0.40
2023-02-08T16:07:34.767Z,-0.60
2023-02-08T16:10:01.799Z,-0.70
2023-02-08T16:12:29.083Z,-0.90
2023-02-08T16:14:58.811Z,-1.00
2023-02-08T16:17:44.941Z,-1.10
2023-02-08T16:20:21.919Z,-1.20
2023-02-08T16:22:59.921Z,-1.30
2023-02-08T16:25:29.599Z,-1.40
2023-02-08T16:27:56.253Z,-1.50
2023-02-08T16:30:23.206Z,-1.50
2023-02-08T16:32:50.010Z,-1.60
2023-02-08T16:35:23.238Z,-1.60
2023-02-08T16:38:02.072Z,-1.70
2023-02-08T16:40:42.029Z,-1.70
2023-02-08T16:43:29.119Z,-1.80
2023-02-08T16:46:11.093Z,-1.80
2023-02-08T16:48:41.865Z,-1.90
2023-02-08T16:51:14.691Z,-1.90
2023-02-08T16:53:42.808Z,-1.90
2023-02-08T16:56:10.758Z,-1.90
2023-02-08T16:58:37.455Z,-1.90
2023-02-08T17:01:04.578Z,-1.90
2023-02-08T17:03:32.637Z,-1.90
2023-02-08T17:06:00.338Z,-2.00
2023-02-08T17:08:26.971Z,-2.00
2023-02-08T17:10:58.656Z,-2.00
2023-02-08T17:13:27.133Z,-2.10
2023-02-08T17:15:53.959Z,-2.10
2023-02-08T17:18:20.950Z,-2.10
2023-02-08T17:20:48.068Z,-2.20
2023-02-08T17:23:15.816Z,-2.20
2023-02-08T17:25:42.950Z,-2.10
2023-02-08T17:28:14.155Z,-2.20
2023-02-08T17:30:41.978Z,-2.20
2023-02-08T17:33:11.584Z,-2.20
2023-02-08T17:35:38.386Z,-2.20
2023-02-08T17:38:05.762Z,-2.20
2023-02-08T17:40:51.051Z,-2.20
2023-02-08T17:43:37.214Z,-2.20
2023-02-08T17:46:25.690Z,-2.20
2023-02-08T17:49:12.710Z,-2.20
2023-02-08T17:51:59.655Z,-2.20
2023-02-08T17:54:46.636Z,-2.30
2023-02-08T17:57:34.647Z,-2.30
2023-02-08T18:00:22.329Z,-2.30
2023-02-08T18:03:09.531Z,-2.30
2023-02-08T18:05:57.296Z,-2.30
2023-02-08T18:08:44.555Z,-2.30
2023-02-08T18:11:31.497Z,-2.30
2023-02-08T18:14:18.860Z,-2.30
2023-02-08T18:17:05.947Z,-2.30
2023-02-08T18:19:53.018Z,-2.30
2023-02-08T18:22:40.723Z,-2.30
2023-02-08T18:25:27.861Z,-2.40
2023-02-08T18:28:16.433Z,-2.40
2023-02-08T18:31:07.576Z,-2.40
2023-02-08T18:33:55.350Z,-2.40
2023-02-08T18:36:42.481Z,-2.40
2023-02-08T18:39:29.733Z,-2.40
2023-02-08T18:42:16.704Z,-2.40
2023-02-08T18:45:04.558Z,-2.40
2023-02-08T18:47:51.500Z,-2.40
2023-02-08T18:50:38.497Z,-2.40
2023-02-08T18:53:27.361Z,-2.40
2023-02-08T18:55:59.012Z,-2.40
2023-02-08T18:58:25.901Z,-2.50
2023-02-08T19:00:52.739Z,-2.50
2023-02-08T19:03:22.938Z,-2.50
2023-02-08T19:05:49.615Z,-2.50
2023-02-08T19:08:20.534Z,-2.60
2023-02-08T19:10:47.240Z,-2.60
2023-02-08T19:13:13.880Z,-2.70
2023-02-08T19:15:40.778Z,-2.70
2023-02-08T19:18:07.869Z,-2.80
2023-02-08T19:20:36.110Z,-2.90
2023-02-08T19:23:05.702Z,-2.90
2023-02-08T19:25:36.157Z,-3.00
2023-02-08T19:28:02.877Z,-3.00
2023-02-08T19:30:29.538Z,-3.00
2023-02-08T19:32:56.889Z,-3.00
2023-02-08T19:35:23.788Z,-3.00
2023-02-08T19:37:51.690Z,-2.90
2023-02-08T19:40:19.149Z,-2.90
2023-02-08T19:42:45.796Z,-2.90
2023-02-08T19:45:12.802Z,-3.00
2023-02-08T19:47:50.970Z,-3.00
2023-02-08T19:50:18.489Z,-3.00
2023-02-08T19:52:45.164Z,-3.10
2023-02-08T19:55:11.848Z,-3.10
2023-02-08T19:57:39.929Z,-3.20
2023-02-08T20:00:17.496Z,-3.20
2023-02-08T20:02:49.487Z,-3.30
2023-02-08T20:05:16.194Z,-3.40
2023-02-08T20:07:43.020Z,-3.40
2023-02-08T20:10:09.879Z,-3.50
2023-02-08T20:12:36.492Z,-3.50
2023-02-08T20:15:03.255Z,-3.50
2023-02-08T20:17:29.908Z,-3.60
2023-02-08T20:19:56.539Z,-3.60
2023-02-08T20:22:23.129Z,-3.60
2023-02-08T20:24:49.859Z,-3.60
2023-02-08T20:27:16.539Z,-3.60
2023-02-08T20:29:43.329Z,-3.60
2023-02-08T20:32:10.124Z,-3.60
2023-02-08T20:34:38.133Z,-3.60
2023-02-08T20:37:08.065Z,-3.60
2023-02-08T20:39:35.666Z,-3.60
2023-02-08T20:42:02.598Z,-3.60
2023-02-08T20:44:29.291Z,-3.60
2023-02-08T20:46:55.915Z,-3.60
2023-02-08T20:49:25.422Z,-3.60
2023-02-08T20:51:55.291Z,-3.60
2023-02-08T20:54:24.461Z,-3.60
2023-02-08T20:56:51.916Z,-3.60
2023-02-08T20:59:18.580Z,-3.60
2023-02-08T21:01:46.559Z,-3.60
2023-02-08T21:04:32.045Z,-3.60
2023-02-08T21:06:58.793Z,-3.60
2023-02-08T21:09:25.569Z,-3.60
2023-02-08T21:11:53.269Z,-3.60
2023-02-08T21:14:21.215Z,-3.60
2023-02-08T21:16:48.936Z,-3.50
2023-02-08T21:19:16.126Z,-3.40
2023-02-08T21:21:43.353Z,-3.30
2023-02-08T21:24:11.182Z,-3.30
2023-02-08T21:26:37.978Z,-3.20
2023-02-08T21:29:06.180Z,-3.20
2023-02-08T21:31:33.757Z,-3.20
2023-02-08T21:34:03.578Z,-3.20
2023-02-08T21:36:30.276Z,-3.10
2023-02-08T21:38:57.292Z,-3.20
2023-02-08T21:41:25.054Z,-3.20
2023-02-08T21:43:53.434Z,-3.20
2023-02-08T21:46:20.186Z,-3.20
2023-02-08T21:49:05.571Z,-3.30
2023-02-08T21:51:51.019Z,-3.30
2023-02-08T21:54:37.600Z,-3.30
2023-02-08T21:57:05.436Z,-3.30
2023-02-08T21:59:36.514Z,-3.30
2023-02-08T22:02:07.647Z,-3.40
2023-02-08T22:04:35.590Z,-3.40
2023-02-08T22:07:04.367Z,-3.50
2023-02-08T22:09:31.413Z,-3.60
2023-02-08T22:11:58.858Z,-3.60
2023-02-08T22:14:25.788Z,-3.60
2023-02-08T22:16:52.444Z,-3.70
2023-02-08T22:19:19.078Z,-3.70
2023-02-08T22:21:45.738Z,-3.70
2023-02-08T22:24:12.372Z,-3.80
2023-02-08T22:26:38.996Z,-3.80
2023-02-08T22:29:06.075Z,-3.90
2023-02-08T22:31:33.146Z,-3.90
2023-02-08T22:34:00.393Z,-4.00
2023-02-08T22:36:27.045Z,-4.00
2023-02-08T22:38:53.709Z,-4.10
2023-02-08T22:41:20.410Z,-4.10
2023-02-08T22:43:48.262Z,-4.20
2023-02-08T22:46:15.303Z,-4.20
2023-02-08T22:48:41.941Z,-4.20
2023-02-08T22:51:09.385Z,-4.20
2023-02-08T22:53:36.115Z,-4.30
2023-02-08T22:56:02.973Z,-4.30
2023-02-08T22:58:29.689Z,-4.30
2023-02-08T23:00:56.313Z,-4.30
2023-02-08T23:03:23.335Z,-4.30
2023-02-08T23:05:50.718Z,-4.20
2023-02-08T23:08:18.213Z,-4.20
2023-02-08T23:10:45.566Z,-4.20
2023-02-08T23:13:12.998Z,-4.20
2023-02-08T23:15:40.915Z,-4.10
2023-02-08T23:18:08.233Z,-4.10
2023-02-08T23:20:38.821Z,-4.20
2023-02-08T23:23:05.419Z,-4.20
2023-02-08T23:25:32.585Z,-4.20
2023-02-08T23:27:59.253Z,-4.30
2023-02-08T23:30:25.884Z,-4.40
2023-02-08T23:32:52.490Z,-4.40
2023-02-08T23:35:19.203Z,-4.40
2023-02-08T23:37:45.811Z,-4.50
2023-02-08T23:40:12.497Z,-4.50
2023-02-08T23:42:39.166Z,-4.50
2023-02-08T23:45:06.134Z,-4.60
2023-02-08T23:47:32.837Z,-4.60
2023-02-08T23:49:59.467Z,-4.60
2023-02-08T23:52:26.136Z,-4.60
2023-02-08T23:54:52.765Z,-4.50
2023-02-08T23:57:19.668Z,-4.50
2023-02-08T23:59:46.319Z,-4.40
